createdAt,value
2018-06-23T00:00:47.702Z,13.98
2018-06-23T00:03:17.472Z,14.01
2018-06-23T00:05:47.269Z,14.00
2018-06-23T00:08:17.036Z,14.05
2018-06-23T00:10:46.826Z,14.01
2018-06-23T00:13:16.653Z,14.03
2018-06-23T00:15:46.521Z,14.05
2018-06-23T00:18:16.305Z,14.07
2018-06-23T00:20:46.212Z,13.99
2018-06-23T00:23:16.029Z,14.11
2018-06-23T00:25:51.147Z,14.15
2018-06-23T00:28:21.008Z,14.24
2018-06-23T00:30:50.878Z,14.24
2018-06-23T00:33:20.631Z,14.26
2018-06-23T00:35:50.447Z,14.29
2018-06-23T00:38:20.223Z,14.26
2018-06-23T00:40:49.956Z,14.28
2018-06-23T00:43:19.790Z,14.38
2018-06-23T00:45:49.688Z,14.34
2018-06-23T00:48:19.428Z,14.32
2018-06-23T00:50:49.177Z,14.36
2018-06-23T00:53:18.932Z,14.42
2018-06-23T00:55:48.664Z,14.42
2018-06-23T00:58:19.144Z,14.29
2018-06-23T01:00:48.895Z,14.12
2018-06-23T01:03:18.604Z,14.13
2018-06-23T01:05:48.388Z,14.09
2018-06-23T01:08:18.191Z,14.06
2018-06-23T01:10:48.007Z,14.04
2018-06-23T01:13:17.932Z,14.04
2018-06-23T01:15:47.773Z,14.10
2018-06-23T01:18:17.688Z,14.12
2018-06-23T01:20:47.580Z,14.19
2018-06-23T01:23:17.898Z,14.13
2018-06-23T01:25:47.692Z,14.12
2018-06-23T01:28:17.507Z,14.04
2018-06-23T01:30:47.376Z,14.06
2018-06-23T01:33:18.200Z,14.04
2018-06-23T01:35:48.869Z,14.18
2018-06-23T01:38:18.908Z,14.19
2018-06-23T01:40:48.844Z,14.19
2018-06-23T01:43:18.685Z,14.11
2018-06-23T01:45:48.652Z,14.19
2018-06-23T01:48:19.566Z,14.16
2018-06-23T01:50:50.066Z,14.04
2018-06-23T01:53:20.124Z,14.14
2018-06-23T01:55:49.996Z,14.06
2018-06-23T01:58:20.040Z,13.98
2018-06-23T02:00:50.198Z,14.07
2018-06-23T02:03:20.883Z,14.13
2018-06-23T02:05:51.778Z,14.01
2018-06-23T02:08:22.616Z,13.96
2018-06-23T02:10:52.495Z,13.84
2018-06-23T02:13:23.294Z,13.88
2018-06-23T02:16:00.949Z,13.79
2018-06-23T02:18:37.036Z,13.90
2018-06-23T02:21:12.680Z,14.03
2018-06-23T02:23:47.766Z,14.04
2018-06-23T02:26:22.735Z,14.05
2018-06-23T02:28:57.615Z,14.03
2018-06-23T02:31:32.407Z,13.97
2018-06-23T02:34:07.457Z,13.89
2018-06-23T02:36:37.425Z,13.81
2018-06-23T02:39:10.387Z,13.87
2018-06-23T02:41:40.271Z,13.81
2018-06-23T02:44:10.162Z,13.88
2018-06-23T02:46:41.031Z,13.86
2018-06-23T02:49:11.078Z,13.77
2018-06-23T02:51:41.796Z,13.73
2018-06-23T02:54:11.775Z,13.65
2018-06-23T02:56:41.641Z,13.56
2018-06-23T02:59:12.243Z,13.56
2018-06-23T03:01:42.247Z,13.46
2018-06-23T03:04:12.260Z,13.44
2018-06-23T03:06:42.050Z,13.46
2018-06-23T03:09:11.903Z,13.41
2018-06-23T03:11:41.654Z,13.26
2018-06-23T03:14:11.501Z,13.15
2018-06-23T03:16:42.367Z,13.06
2018-06-23T03:19:12.324Z,13.11
2018-06-23T03:21:42.041Z,12.94
2018-06-23T03:24:13.727Z,13.07
2018-06-23T03:26:43.539Z,13.08
2018-06-23T03:29:13.346Z,12.97
2018-06-23T03:31:43.134Z,12.89
2018-06-23T03:34:13.171Z,12.90
2018-06-23T03:36:42.953Z,13.03
2018-06-23T03:39:12.893Z,13.13
2018-06-23T03:41:42.727Z,13.23
2018-06-23T03:44:13.937Z,13.18
2018-06-23T03:46:43.743Z,13.39
2018-06-23T03:49:14.598Z,13.46
2018-06-23T03:51:44.452Z,13.55
2018-06-23T03:54:14.672Z,13.64
2018-06-23T03:56:44.409Z,13.68
2018-06-23T03:59:14.271Z,13.70
2018-06-23T04:01:44.095Z,13.76
2018-06-23T04:04:13.954Z,13.78
2018-06-23T04:06:43.789Z,13.84
2018-06-23T04:09:13.650Z,13.87
2018-06-23T04:11:43.539Z,13.87
2018-06-23T04:14:14.087Z,13.83
2018-06-23T04:16:44.492Z,13.89
2018-06-23T04:19:14.343Z,13.88
2018-06-23T04:21:44.123Z,13.77
2018-06-23T04:24:14.026Z,13.95
2018-06-23T04:26:43.890Z,13.92
2018-06-23T04:29:13.782Z,14.00
2018-06-23T04:31:43.562Z,14.14
2018-06-23T04:34:13.386Z,14.21
2018-06-23T04:36:43.143Z,14.28
2018-06-23T04:39:13.043Z,14.23
2018-06-23T04:41:42.790Z,14.13
2018-06-23T04:44:12.710Z,13.95
2018-06-23T04:46:42.544Z,13.95
2018-06-23T04:49:12.442Z,13.81
2018-06-23T04:51:42.265Z,13.91
2018-06-23T04:54:12.190Z,14.25
2018-06-23T04:56:41.951Z,14.27
2018-06-23T04:59:11.940Z,14.27
2018-06-23T05:01:41.762Z,14.37
2018-06-23T05:04:11.699Z,14.41
2018-06-23T05:06:41.564Z,14.17
2018-06-23T05:09:11.198Z,14.24
2018-06-23T05:11:40.961Z,14.12
2018-06-23T05:14:10.933Z,14.01
2018-06-23T05:16:40.786Z,14.17
2018-06-23T05:19:10.675Z,13.94
2018-06-23T05:21:40.658Z,13.88
2018-06-23T05:24:10.458Z,13.93
2018-06-23T05:26:40.280Z,14.21
2018-06-23T05:29:10.166Z,14.31
2018-06-23T05:31:40.122Z,14.55
2018-06-23T05:34:09.978Z,14.59
2018-06-23T05:36:39.938Z,14.62
2018-06-23T05:39:10.770Z,14.71
2018-06-23T05:41:40.558Z,14.58
2018-06-23T05:44:10.621Z,14.78
2018-06-23T05:46:40.474Z,14.72
2018-06-23T05:49:11.114Z,14.81
2018-06-23T05:51:40.930Z,14.85
2018-06-23T05:54:10.885Z,14.86
2018-06-23T05:56:40.738Z,14.86
2018-06-23T05:59:10.542Z,14.96
2018-06-23T06:01:40.279Z,14.88
2018-06-23T06:04:10.096Z,14.86
2018-06-23T06:06:39.898Z,14.69
2018-06-23T06:09:10.597Z,14.84
2018-06-23T06:11:40.403Z,15.17
2018-06-23T06:14:10.149Z,14.96
2018-06-23T06:17:43.509Z,14.89
2018-06-23T06:20:15.722Z,15.27
2018-06-23T06:22:47.373Z,15.22
2018-06-23T06:25:19.208Z,14.94
2018-06-23T06:27:49.162Z,14.65
2018-06-23T06:30:19.071Z,14.97
2018-06-23T06:32:48.864Z,15.14
2018-06-23T06:35:19.562Z,15.33
2018-06-23T06:37:49.401Z,15.63
2018-06-23T06:40:19.250Z,15.33
2018-06-23T06:42:49.036Z,15.30
2018-06-23T06:45:18.881Z,15.36
2018-06-23T06:47:48.376Z,15.43
2018-06-23T06:50:18.341Z,15.58
2018-06-23T06:52:48.194Z,15.47
2018-06-23T06:55:18.036Z,15.62
2018-06-23T06:57:47.977Z,15.70
2018-06-23T07:00:17.835Z,15.53
2018-06-23T07:02:47.684Z,15.39
2018-06-23T07:05:18.995Z,15.07
2018-06-23T07:07:48.760Z,14.84
2018-06-23T07:10:18.645Z,14.76
2018-06-23T07:12:48.553Z,14.85
2018-06-23T07:15:18.409Z,15.08
2018-06-23T07:17:48.255Z,15.05
2018-06-23T07:20:18.083Z,15.18
2018-06-23T07:22:47.922Z,15.52
2018-06-23T07:25:17.796Z,16.06
2018-06-23T07:27:47.741Z,16.47
2018-06-23T07:30:17.615Z,16.66
2018-06-23T07:32:47.509Z,16.78
2018-06-23T07:35:17.410Z,16.49
2018-06-23T07:37:47.142Z,16.20
2018-06-23T07:40:16.952Z,16.06
2018-06-23T07:42:46.881Z,15.80
2018-06-23T07:45:16.701Z,15.64
2018-06-23T07:47:48.870Z,15.61
2018-06-23T07:50:18.664Z,15.55
2018-06-23T07:52:48.425Z,15.42
2018-06-23T07:55:18.334Z,15.28
2018-06-23T07:57:48.788Z,15.25
2018-06-23T08:00:18.784Z,15.65
2018-06-23T08:02:48.488Z,15.90
2018-06-23T08:05:19.274Z,16.53
2018-06-23T08:07:49.521Z,16.67
2018-06-23T08:10:20.497Z,16.61
2018-06-23T08:12:50.964Z,16.26
2018-06-23T08:15:21.841Z,15.87
2018-06-23T08:17:51.793Z,15.66
2018-06-23T08:20:21.616Z,15.56
2018-06-23T08:22:51.615Z,15.42
2018-06-23T08:25:21.440Z,15.35
2018-06-23T08:27:51.406Z,15.25
2018-06-23T08:30:21.139Z,15.30
2018-06-23T08:32:51.696Z,15.19
2018-06-23T08:35:21.837Z,15.29
2018-06-23T08:37:52.401Z,15.79
2018-06-23T08:40:22.511Z,15.79
2018-06-23T08:42:52.600Z,15.57
2018-06-23T08:45:23.059Z,15.40
2018-06-23T08:47:53.183Z,15.14
2018-06-23T08:50:23.445Z,15.12
2018-06-23T08:52:53.255Z,15.48
2018-06-23T08:55:23.376Z,16.09
2018-06-23T08:57:53.314Z,16.36
2018-06-23T09:00:23.211Z,16.04
2018-06-23T09:02:53.013Z,15.58
2018-06-23T09:05:22.882Z,15.40
2018-06-23T09:07:52.809Z,15.39
2018-06-23T09:10:23.166Z,15.59
2018-06-23T09:12:53.698Z,15.86
2018-06-23T09:15:24.410Z,15.71
2018-06-23T09:17:54.309Z,15.32
2018-06-23T09:20:24.454Z,14.98
2018-06-23T09:22:54.472Z,15.07
2018-06-23T09:25:24.267Z,15.06
2018-06-23T09:27:54.303Z,15.24
2018-06-23T09:30:24.587Z,15.35
2018-06-23T09:32:54.445Z,15.50
2018-06-23T09:35:24.212Z,15.51
2018-06-23T09:37:54.128Z,15.34
2018-06-23T09:40:24.527Z,15.51
2018-06-23T09:42:55.015Z,15.61
2018-06-23T09:45:25.150Z,15.73
2018-06-23T09:47:55.130Z,15.65
2018-06-23T09:50:25.724Z,15.47
2018-06-23T09:52:56.460Z,15.43
2018-06-23T09:55:26.949Z,15.46
2018-06-23T09:57:57.146Z,15.58
2018-06-23T10:00:28.470Z,16.15
2018-06-23T10:03:02.004Z,16.94
2018-06-23T10:05:32.448Z,17.15
2018-06-23T10:08:02.397Z,16.62
2018-06-23T10:10:32.258Z,16.51
2018-06-23T10:13:02.044Z,16.65
2018-06-23T10:15:32.080Z,16.37
2018-06-23T10:18:01.893Z,16.25
2018-06-23T10:20:31.770Z,16.64
2018-06-23T10:23:01.765Z,16.74
2018-06-23T10:25:33.215Z,16.73
2018-06-23T10:28:03.358Z,17.32
2018-06-23T10:30:34.050Z,18.32
2018-06-23T10:33:03.855Z,18.28
2018-06-23T10:35:33.765Z,18.08
2018-06-23T10:38:03.694Z,17.75
2018-06-23T10:40:33.812Z,17.53
2018-06-23T10:43:03.683Z,17.61
2018-06-23T10:45:34.171Z,17.41
2018-06-23T10:48:05.172Z,17.67
2018-06-23T10:50:35.226Z,17.91
2018-06-23T10:53:06.899Z,17.89
2018-06-23T10:55:37.462Z,18.15
2018-06-23T10:58:07.386Z,17.90
2018-06-23T11:00:38.241Z,18.21
2018-06-23T11:03:08.147Z,19.10
2018-06-23T11:05:38.905Z,19.98
2018-06-23T11:08:08.705Z,20.44
2018-06-23T11:10:38.497Z,20.83
2018-06-23T11:13:10.492Z,20.17
2018-06-23T11:15:41.489Z,21.25
2018-06-23T11:18:13.768Z,21.67
2018-06-23T11:20:44.485Z,21.93
2018-06-23T11:23:14.381Z,22.18
2018-06-23T11:25:45.826Z,21.98
2018-06-23T11:28:16.835Z,20.94
2018-06-23T11:30:49.500Z,20.50
2018-06-23T11:33:20.367Z,19.94
2018-06-23T11:35:50.921Z,19.72
2018-06-23T11:38:21.500Z,20.03
2018-06-23T11:40:51.296Z,19.62
2018-06-23T11:43:21.062Z,19.86
2018-06-23T11:45:51.442Z,19.87
2018-06-23T11:48:21.877Z,20.56
2018-06-23T11:50:51.960Z,21.05
2018-06-23T11:53:22.271Z,20.67
2018-06-23T11:55:52.052Z,19.79
2018-06-23T11:58:21.881Z,19.24
2018-06-23T12:00:52.180Z,20.35
2018-06-23T12:03:21.990Z,20.04
2018-06-23T12:05:51.723Z,19.63
2018-06-23T12:08:21.530Z,20.09
2018-06-23T12:10:51.310Z,20.40
2018-06-23T12:13:21.245Z,20.42
2018-06-23T12:15:51.062Z,21.19
2018-06-23T12:18:20.864Z,22.25
2018-06-23T12:20:50.589Z,22.12
2018-06-23T12:23:20.402Z,21.91
2018-06-23T12:25:50.146Z,21.47
2018-06-23T12:28:19.951Z,20.94
2018-06-23T12:30:49.771Z,21.01
2018-06-23T12:33:19.600Z,20.95
2018-06-23T12:35:49.386Z,21.26
2018-06-23T12:38:19.211Z,21.69
2018-06-23T12:40:48.998Z,22.13
2018-06-23T12:43:18.801Z,21.91
2018-06-23T12:45:50.056Z,21.65
2018-06-23T12:48:20.708Z,21.69
2018-06-23T12:56:46.543Z,22.45
2018-06-23T12:59:17.152Z,22.44
2018-06-23T13:01:47.717Z,21.32
2018-06-23T13:04:18.037Z,20.62
2018-06-23T13:06:48.273Z,20.95
2018-06-23T13:09:18.441Z,21.05
2018-06-23T13:11:48.581Z,20.56
2018-06-23T13:14:18.568Z,20.72
2018-06-23T13:16:48.737Z,20.55
2018-06-23T13:19:19.318Z,20.84
2018-06-23T13:21:49.166Z,20.69
2018-06-23T13:24:19.613Z,19.84
2018-06-23T13:26:49.719Z,19.43
2018-06-23T13:29:19.592Z,19.31
2018-06-23T13:31:50.452Z,19.25
2018-06-23T13:34:20.256Z,19.44
2018-06-23T13:36:50.470Z,19.69
2018-06-23T13:39:20.289Z,19.87
2018-06-23T13:41:50.191Z,19.95
2018-06-23T13:44:20.278Z,19.48
2018-06-23T13:46:50.573Z,19.73
2018-06-23T13:49:21.308Z,20.05
2018-06-23T13:51:51.692Z,20.41
2018-06-23T13:54:21.835Z,19.98
2018-06-23T13:56:52.807Z,19.72
2018-06-23T13:59:22.641Z,20.03
2018-06-23T14:01:52.475Z,20.12
2018-06-23T14:04:22.387Z,20.31
2018-06-23T14:06:52.194Z,19.76
2018-06-23T14:09:22.041Z,20.12
2018-06-23T14:11:51.885Z,19.92
2018-06-23T14:14:21.865Z,19.82
2018-06-23T14:16:51.901Z,19.57
2018-06-23T14:19:21.752Z,18.94
2018-06-23T14:21:51.621Z,18.88
2018-06-23T14:24:21.541Z,19.30
2018-06-23T14:26:51.470Z,19.69
2018-06-23T14:29:21.420Z,19.82
2018-06-23T14:31:51.664Z,19.91
2018-06-23T14:34:21.423Z,19.62
2018-06-23T14:36:51.365Z,20.57
2018-06-23T14:39:21.226Z,20.90
2018-06-23T14:41:51.209Z,20.97
2018-06-23T14:44:20.859Z,21.20
2018-06-23T14:46:51.290Z,21.29
2018-06-23T14:49:21.382Z,20.73
2018-06-23T14:51:51.256Z,20.22
2018-06-23T14:54:21.267Z,20.21
2018-06-23T14:56:51.390Z,19.88
2018-06-23T14:59:21.539Z,19.57
2018-06-23T15:01:51.595Z,19.07
2018-06-23T15:04:22.177Z,18.65
2018-06-23T15:06:51.999Z,18.41
2018-06-23T15:09:39.157Z,18.38
2018-06-23T15:12:25.694Z,18.42
2018-06-23T15:14:55.754Z,18.31
2018-06-23T15:17:26.844Z,18.30
2018-06-23T15:20:01.738Z,18.53
2018-06-23T15:22:31.604Z,18.73
2018-06-23T15:25:01.601Z,19.03
2018-06-23T15:27:31.642Z,19.06
2018-06-23T15:30:01.725Z,18.72
2018-06-23T15:32:32.756Z,18.71
2018-06-23T15:35:05.864Z,18.78
2018-06-23T15:37:37.700Z,18.18
2018-06-23T15:40:07.816Z,17.79
2018-06-23T15:42:38.604Z,17.61
2018-06-23T15:45:09.950Z,17.24
2018-06-23T15:47:40.590Z,17.18
2018-06-23T15:50:11.703Z,16.93
2018-06-23T15:52:42.006Z,16.82
2018-06-23T15:55:12.090Z,16.79
2018-06-23T15:57:42.497Z,16.86
2018-06-23T16:00:12.617Z,16.82
2018-06-23T16:02:42.692Z,16.81
2018-06-23T16:05:12.560Z,16.82
2018-06-23T16:07:44.356Z,16.69
2018-06-23T16:10:26.330Z,16.56
2018-06-23T16:12:57.062Z,16.58
2018-06-23T16:15:27.350Z,16.61
2018-06-23T16:17:58.639Z,16.37
2018-06-23T16:20:28.848Z,16.60
2018-06-23T16:23:00.398Z,16.76
2018-06-23T16:25:31.070Z,16.70
2018-06-23T16:28:01.479Z,16.97
2018-06-23T16:30:31.731Z,17.05
2018-06-23T16:33:03.729Z,16.94
2018-06-23T16:35:33.519Z,16.83
2018-06-23T16:38:03.722Z,16.79
2018-06-23T16:40:34.213Z,16.86
2018-06-23T16:43:04.251Z,17.09
2018-06-23T16:45:34.437Z,17.20
2018-06-23T16:48:05.581Z,17.25
2018-06-23T16:50:36.782Z,17.28
2018-06-23T16:53:07.712Z,17.27
2018-06-23T16:55:38.056Z,17.25
2018-06-23T16:58:09.317Z,17.08
2018-06-23T17:00:40.079Z,16.93
2018-06-23T17:03:10.328Z,16.81
2018-06-23T17:05:40.144Z,16.80
2018-06-23T17:08:10.038Z,16.86
2018-06-23T17:10:39.977Z,16.96
2018-06-23T17:13:10.204Z,17.08
2018-06-23T17:15:40.865Z,16.76
2018-06-23T17:18:10.833Z,16.49
2018-06-23T17:20:41.486Z,16.44
2018-06-23T17:23:12.138Z,16.35
2018-06-23T17:25:42.099Z,16.15
2018-06-23T17:28:11.918Z,15.98
2018-06-23T17:30:43.993Z,15.85
2018-06-23T17:33:14.286Z,15.81
2018-06-23T17:35:44.424Z,15.78
2018-06-23T17:38:14.525Z,15.77
2018-06-23T17:40:45.882Z,15.80
2018-06-23T17:43:16.404Z,15.77
2018-06-23T17:45:46.500Z,15.82
2018-06-23T17:48:16.140Z,15.83
2018-06-23T17:50:46.972Z,15.85
2018-06-23T17:53:17.877Z,15.78
2018-06-23T17:55:48.148Z,15.64
2018-06-23T17:58:18.559Z,15.57
2018-06-23T18:00:49.497Z,14.41
2018-06-23T18:03:19.857Z,13.84
2018-06-23T18:05:49.908Z,13.38
2018-06-23T18:08:20.099Z,13.48
2018-06-23T18:10:50.137Z,13.32
2018-06-23T18:13:20.200Z,13.22
2018-06-23T18:15:53.106Z,13.10
2018-06-23T18:18:22.880Z,13.09
2018-06-23T18:20:54.728Z,13.20
2018-06-23T18:23:24.680Z,13.29
2018-06-23T18:25:56.394Z,13.25
2018-06-23T18:28:27.812Z,13.20
2018-06-23T18:30:57.969Z,13.11
2018-06-23T18:33:27.925Z,13.15
2018-06-23T18:35:57.788Z,13.24
2018-06-23T18:38:28.002Z,13.19
2018-06-23T18:40:57.847Z,13.23
2018-06-23T18:43:27.915Z,13.18
2018-06-23T18:45:57.707Z,13.21
2018-06-23T18:48:27.672Z,13.20
2018-06-23T18:50:57.858Z,13.18
2018-06-23T18:53:27.965Z,13.19
2018-06-23T18:55:57.760Z,13.15
2018-06-23T18:58:27.899Z,13.20
2018-06-23T19:00:59.266Z,13.18
2018-06-23T19:03:29.451Z,13.21
2018-06-23T19:05:59.309Z,13.20
2018-06-23T19:08:29.638Z,13.20
2018-06-23T19:10:59.124Z,13.11
2018-06-23T19:13:29.299Z,13.23
2018-06-23T19:15:59.454Z,13.15
2018-06-23T19:18:29.288Z,13.14
2018-06-23T19:20:59.227Z,13.12
2018-06-23T19:23:29.209Z,13.14
2018-06-23T19:26:01.551Z,13.12
2018-06-23T19:28:34.179Z,13.07
2018-06-23T19:31:03.983Z,13.17
2018-06-23T19:33:34.846Z,13.17
2018-06-23T19:36:05.099Z,13.23
2018-06-23T19:38:35.053Z,13.26
2018-06-23T19:41:25.671Z,13.31
2018-06-23T19:43:55.697Z,13.42
2018-06-23T19:46:25.543Z,13.43
2018-06-23T19:48:55.323Z,13.42
2018-06-23T19:51:25.124Z,13.36
2018-06-23T19:53:56.181Z,13.30
2018-06-23T19:56:26.291Z,13.24
2018-06-23T19:58:56.116Z,13.17
2018-06-23T20:01:27.412Z,13.15
2018-06-23T20:03:57.371Z,13.20
2018-06-23T20:06:27.249Z,13.25
2018-06-23T20:08:57.036Z,13.21
2018-06-23T20:11:26.962Z,13.25
2018-06-23T20:13:56.718Z,13.20
2018-06-23T20:16:26.466Z,13.19
2018-06-23T20:18:56.258Z,13.30
2018-06-23T20:21:26.182Z,13.29
2018-06-23T20:23:55.999Z,13.33
2018-06-23T20:26:25.902Z,13.32
2018-06-23T20:28:55.757Z,13.32
2018-06-23T20:31:25.663Z,13.35
2018-06-23T20:33:56.301Z,13.40
2018-06-23T20:36:26.391Z,13.42
2018-06-23T20:38:56.411Z,13.38
2018-06-23T20:41:26.353Z,13.48
2018-06-23T20:43:56.199Z,13.54
2018-06-23T20:46:26.032Z,13.63
2018-06-23T20:48:56.159Z,13.63
2018-06-23T20:51:25.987Z,13.62
2018-06-23T20:53:56.197Z,13.55
2018-06-23T20:56:26.095Z,13.54
2018-06-23T20:58:55.975Z,13.57
2018-06-23T21:01:25.784Z,13.46
2018-06-23T21:03:55.634Z,13.39
2018-06-23T21:06:25.401Z,13.46
2018-06-23T21:08:55.251Z,13.45
2018-06-23T21:11:25.140Z,13.40
2018-06-23T21:13:55.079Z,13.35
2018-06-23T21:16:26.450Z,13.37
2018-06-23T21:18:56.371Z,13.32
2018-06-23T21:21:26.228Z,13.31
2018-06-23T21:23:56.077Z,13.24
2018-06-23T21:26:25.903Z,13.28
2018-06-23T21:28:55.988Z,13.23
2018-06-23T21:31:26.085Z,13.15
2018-06-23T21:33:56.334Z,13.13
2018-06-23T21:36:26.336Z,13.18
2018-06-23T21:38:56.278Z,13.13
2018-06-23T21:41:26.130Z,13.10
2018-06-23T21:43:56.007Z,13.06
2018-06-23T21:46:25.763Z,13.07
2018-06-23T21:48:55.779Z,13.06
2018-06-23T21:51:25.610Z,13.06
2018-06-23T21:53:55.435Z,13.10
2018-06-23T21:56:25.251Z,13.17
2018-06-23T21:58:55.123Z,13.16
2018-06-23T22:01:25.158Z,13.16
2018-06-23T22:03:55.155Z,13.11
2018-06-23T22:06:24.997Z,13.03
2018-06-23T22:08:54.697Z,13.05
2018-06-23T22:11:24.628Z,13.13
2018-06-23T22:13:54.505Z,13.12
2018-06-23T22:16:26.143Z,13.03
2018-06-23T22:18:56.097Z,13.10
2018-06-23T22:21:25.999Z,13.12
2018-06-23T22:23:55.828Z,13.05
2018-06-23T22:26:26.590Z,13.02
2018-06-23T22:28:56.377Z,13.13
2018-06-23T22:31:26.237Z,13.08
2018-06-23T22:33:56.194Z,13.06
2018-06-23T22:36:25.978Z,13.15
2018-06-23T22:38:55.858Z,13.08
2018-06-23T22:41:25.625Z,13.12
2018-06-23T22:43:55.598Z,13.16
2018-06-23T22:46:25.466Z,13.05
2018-06-23T22:48:55.430Z,13.08
2018-06-23T22:51:25.252Z,12.95
2018-06-23T22:53:55.916Z,13.04
2018-06-23T22:56:25.682Z,13.02
2018-06-23T22:58:55.624Z,13.10
2018-06-23T23:01:25.342Z,13.02
2018-06-23T23:03:55.476Z,13.02
2018-06-23T23:06:25.305Z,13.00
2018-06-23T23:08:55.205Z,13.02
2018-06-23T23:11:24.969Z,13.06
2018-06-23T23:13:54.861Z,13.15
2018-06-23T23:16:24.573Z,13.05
2018-06-23T23:18:54.319Z,13.14
2018-06-23T23:21:24.050Z,13.15
2018-06-23T23:23:53.932Z,13.08
2018-06-23T23:26:23.715Z,13.10
2018-06-23T23:28:53.527Z,13.18
2018-06-23T23:31:23.359Z,13.17
2018-06-23T23:33:53.193Z,13.17
2018-06-23T23:36:22.913Z,13.04
2018-06-23T23:38:52.662Z,13.13
2018-06-23T23:41:22.363Z,13.11
2018-06-23T23:43:52.471Z,13.07
2018-06-23T23:46:22.285Z,13.06
2018-06-23T23:48:52.153Z,13.16
2018-06-23T23:51:22.005Z,13.20
2018-06-23T23:53:51.818Z,13.18
2018-06-23T23:56:21.929Z,13.06
2018-06-23T23:58:51.714Z,13.16
